Details From KBWG - BOWLING GREEN WARREN CO RGNL
To KCHA - Lovell Field
Flight Number -
Tags decoded
Created
Modified
Stats Distance 130 nm / 241 km
Max Altitude 0 ft / 0 m
Waypoints 2
Social Downloads 0
Likes 0
Share VATSIM

Download

Looking for another format? Having issues loading an existing format? Contact us
Advertisement - Login to hide

Notes

Requested: KBWG KCHA

Route

KBWG KCHA

ID Type Via Altitude Latitude Longitude Leg Dist Tot Dist Heading (true) Name
O KBWG APT - 0 ft / 0 m 36.96390˚ -86.41974˚ - 0 nm - BOWLING GREEN WARREN CO RGNL
O KCHA APT - 0 ft / 0 m 35.03565˚ -85.20349˚ 130 nm 130 nm 153° / 153° Lovell Field

Altitude Profile

Advertisement - Login to hide

KBWG

Details ICAO KBWG (BWG)
Name BOWLING GREEN WARREN CO RGNL
Region United States
Timezone America/Chicago (UTC-6.0)
Stats Elevation 547 ft / 167 m (AMSL)
Location 36.963899° -86.419738°
Runways 2
Magnetic Variation 4.138° W

METAR

KBWG 131953Z AUTO 20020G29KT 10SM SCT110 08/M09 A2967 RMK AO2 PK WND 20030/1856 PRESFR SLP050 T00831089

Decode

TAF

KBWG 131723Z 1318/1418 20015G25KT P6SM SKC FM132100 22017G28KT P6SM FEW250 FM140300 24009G19KT P6SM SCT050 FM140600 28009KT P6SM SCT035 FM141100 VRB04KT P6SM SCT035

Decode

Departure Runways

ID Width Length Bearing (true) Bearing (mag) Surface Threshold Offset Overrun Length
03 150 ft / 46 m 6,507 ft / 1,983 m 29.77° 33.91° Asphalt 0 ft / 0 m 0 ft / 0 m
12 150 ft / 46 m 3,951 ft / 1,204 m 120.00° 124.14° Asphalt 0 ft / 0 m 0 ft / 0 m
21 150 ft / 46 m 6,507 ft / 1,983 m 209.78° 213.92° Asphalt 0 ft / 0 m 0 ft / 0 m
30 150 ft / 46 m 3,951 ft / 1,204 m 300.00° 304.14° Asphalt 349 ft / 106 m 0 ft / 0 m

KCHA

Details ICAO KCHA (CHA)
Name Lovell Field
Region United States
Timezone America/New_York (UTC-5.0)
Stats Elevation 683 ft / 208 m (AMSL)
Location 35.035654° -85.203491°
Runways 2
Magnetic Variation 4.747° W

METAR

KCHA 131953Z 16010KT 10SM FEW150 08/M12 A2986 RMK AO2 SLP115 T00831117

Decode

TAF

TAF AMD KCHA 132032Z 1321/1418 18010G16KT P6SM SCT120 FM140100 22008KT P6SM SCT250 FM141000 32005KT P6SM SCT020 BKN250

Decode

Destination Runways

ID Width Length Bearing (true) Bearing (mag) Surface Threshold Offset Overrun Length
02 151 ft / 46 m 7,416 ft / 2,260 m 16.63° 21.38° Asphalt 0 ft / 0 m 49 ft / 15 m
15 151 ft / 46 m 5,580 ft / 1,701 m 145.60° 150.35° Asphalt 105 ft / 32 m 0 ft / 0 m
20 151 ft / 46 m 7,416 ft / 2,260 m 196.63° 201.38° Asphalt 0 ft / 0 m 0 ft / 0 m
33 151 ft / 46 m 5,580 ft / 1,701 m 325.61° 330.36° Asphalt 574 ft / 175 m 0 ft / 0 m

Approach Navaids

Runway Type Ident Frequency Range Bearing (true) Bearing (mag) Slope Elevation
02 Localiser ICGW 108.30 MHz 18 nm / 33 km 16.63° 21.38° - 667 ft / 203 m (AMSL)
02 Glidescope ICGW 108.30 MHz 10 nm / 19 km 16.63° 21.38° 3.00° 675 ft / 206 m (AMSL)
20 Localiser ICHA 109.50 MHz 18 nm / 33 km 196.63° 201.38° - 674 ft / 205 m (AMSL)
20 Glidescope ICHA 109.50 MHz 10 nm / 19 km 196.63° 201.38° 3.00° 663 ft / 202 m (AMSL)